sensor_id;sensor_type;location;lat;lon;timestamp;P1;durP1;ratioP1;P2;durP2;ratioP2
42846;SDS011;28495;49.916;14.536;2023-05-31T00:02:32;1.70;;;1.25;;
42846;SDS011;28495;49.916;14.536;2023-05-31T00:07:54;3.60;;;1.30;;
42846;SDS011;28495;49.916;14.536;2023-05-31T00:13:14;4.68;;;1.27;;
42846;SDS011;28495;49.916;14.536;2023-05-31T00:18:35;2.53;;;0.95;;
42846;SDS011;28495;49.916;14.536;2023-05-31T00:23:56;1.55;;;1.20;;
42846;SDS011;28495;49.916;14.536;2023-05-31T00:29:17;3.67;;;1.35;;
42846;SDS011;28495;49.916;14.536;2023-05-31T00:34:38;4.03;;;1.17;;
42846;SDS011;28495;49.916;14.536;2023-05-31T00:39:59;2.42;;;1.15;;
42846;SDS011;28495;49.916;14.536;2023-05-31T00:45:20;4.22;;;1.20;;
42846;SDS011;28495;49.916;14.536;2023-05-31T00:50:40;2.30;;;0.90;;
42846;SDS011;28495;49.916;14.536;2023-05-31T00:56:02;3.40;;;1.27;;
42846;SDS011;28495;49.916;14.536;2023-05-31T01:01:23;1.35;;;1.10;;
42846;SDS011;28495;49.916;14.536;2023-05-31T01:06:53;3.70;;;1.60;;
42846;SDS011;28495;49.916;14.536;2023-05-31T01:12:27;5.07;;;1.20;;
42846;SDS011;28495;49.916;14.536;2023-05-31T01:28:59;5.03;;;1.38;;
42846;SDS011;28495;49.916;14.536;2023-05-31T01:34:24;2.08;;;1.38;;
42846;SDS011;28495;49.916;14.536;2023-05-31T01:39:45;1.92;;;1.08;;
42846;SDS011;28495;49.916;14.536;2023-05-31T01:45:08;5.03;;;1.27;;
42846;SDS011;28495;49.916;14.536;2023-05-31T01:50:34;2.00;;;1.13;;
42846;SDS011;28495;49.916;14.536;2023-05-31T01:55:56;4.25;;;1.20;;
42846;SDS011;28495;49.916;14.536;2023-05-31T02:01:19;1.10;;;1.00;;
42846;SDS011;28495;49.916;14.536;2023-05-31T02:06:41;2.63;;;1.20;;
42846;SDS011;28495;49.916;14.536;2023-05-31T02:12:02;2.35;;;1.52;;
42846;SDS011;28495;49.916;14.536;2023-05-31T02:17:24;3.55;;;1.48;;
42846;SDS011;28495;49.916;14.536;2023-05-31T02:22:45;2.97;;;1.30;;
42846;SDS011;28495;49.916;14.536;2023-05-31T02:28:07;4.95;;;2.10;;
42846;SDS011;28495;49.916;14.536;2023-05-31T02:33:28;2.38;;;1.42;;
42846;SDS011;28495;49.916;14.536;2023-05-31T02:38:49;5.88;;;1.35;;
42846;SDS011;28495;49.916;14.536;2023-05-31T02:44:10;3.95;;;1.30;;
42846;SDS011;28495;49.916;14.536;2023-05-31T02:49:32;2.20;;;1.27;;
42846;SDS011;28495;49.916;14.536;2023-05-31T02:54:53;3.58;;;1.42;;
42846;SDS011;28495;49.916;14.536;2023-05-31T03:00:18;4.90;;;1.40;;
42846;SDS011;28495;49.916;14.536;2023-05-31T03:05:39;4.05;;;1.60;;
42846;SDS011;28495;49.916;14.536;2023-05-31T03:11:01;4.53;;;1.48;;
42846;SDS011;28495;49.916;14.536;2023-05-31T03:16:23;3.22;;;1.52;;
42846;SDS011;28495;49.916;14.536;2023-05-31T03:21:45;4.57;;;1.70;;
42846;SDS011;28495;49.916;14.536;2023-05-31T03:27:06;2.33;;;1.45;;
42846;SDS011;28495;49.916;14.536;2023-05-31T03:32:28;3.83;;;1.48;;
42846;SDS011;28495;49.916;14.536;2023-05-31T03:37:49;3.45;;;1.48;;
42846;SDS011;28495;49.916;14.536;2023-05-31T03:43:10;2.30;;;1.52;;
42846;SDS011;28495;49.916;14.536;2023-05-31T03:48:32;3.42;;;1.60;;
42846;SDS011;28495;49.916;14.536;2023-05-31T03:53:53;4.35;;;1.73;;
42846;SDS011;28495;49.916;14.536;2023-05-31T03:59:14;3.90;;;1.58;;
42846;SDS011;28495;49.916;14.536;2023-05-31T04:04:35;4.03;;;1.80;;
42846;SDS011;28495;49.916;14.536;2023-05-31T04:09:56;3.83;;;1.88;;
42846;SDS011;28495;49.916;14.536;2023-05-31T04:15:16;2.63;;;1.27;;
42846;SDS011;28495;49.916;14.536;2023-05-31T04:20:37;4.47;;;2.00;;
42846;SDS011;28495;49.916;14.536;2023-05-31T04:25:59;3.20;;;1.52;;
42846;SDS011;28495;49.916;14.536;2023-05-31T04:31:24;3.70;;;1.70;;
42846;SDS011;28495;49.916;14.536;2023-05-31T04:37:02;2.65;;;1.90;;
42846;SDS011;28495;49.916;14.536;2023-05-31T04:42:25;10.00;;;2.38;;
42846;SDS011;28495;49.916;14.536;2023-05-31T04:47:47;7.35;;;1.92;;
42846;SDS011;28495;49.916;14.536;2023-05-31T04:53:11;5.78;;;1.67;;
42846;SDS011;28495;49.916;14.536;2023-05-31T04:58:33;3.10;;;1.67;;
42846;SDS011;28495;49.916;14.536;2023-05-31T05:03:54;6.10;;;2.13;;
42846;SDS011;28495;49.916;14.536;2023-05-31T05:09:15;3.88;;;1.85;;
42846;SDS011;28495;49.916;14.536;2023-05-31T05:14:37;2.75;;;1.60;;
42846;SDS011;28495;49.916;14.536;2023-05-31T05:19:58;6.30;;;1.90;;
42846;SDS011;28495;49.916;14.536;2023-05-31T05:25:21;3.38;;;1.60;;
42846;SDS011;28495;49.916;14.536;2023-05-31T05:30:43;4.30;;;1.88;;
42846;SDS011;28495;49.916;14.536;2023-05-31T05:36:05;3.63;;;1.73;;
42846;SDS011;28495;49.916;14.536;2023-05-31T05:41:35;7.45;;;2.08;;
42846;SDS011;28495;49.916;14.536;2023-05-31T05:46:58;3.08;;;1.65;;
42846;SDS011;28495;49.916;14.536;2023-05-31T05:52:18;2.50;;;1.73;;
42846;SDS011;28495;49.916;14.536;2023-05-31T05:57:39;3.10;;;1.42;;
42846;SDS011;28495;49.916;14.536;2023-05-31T06:03:20;5.32;;;1.67;;
42846;SDS011;28495;49.916;14.536;2023-05-31T06:08:45;2.92;;;1.45;;
42846;SDS011;28495;49.916;14.536;2023-05-31T06:14:07;3.60;;;1.80;;
42846;SDS011;28495;49.916;14.536;2023-05-31T06:19:33;4.53;;;1.63;;
42846;SDS011;28495;49.916;14.536;2023-05-31T06:24:57;6.00;;;1.90;;
42846;SDS011;28495;49.916;14.536;2023-05-31T06:30:18;2.65;;;1.45;;
42846;SDS011;28495;49.916;14.536;2023-05-31T06:35:40;2.40;;;1.70;;
42846;SDS011;28495;49.916;14.536;2023-05-31T06:41:03;2.95;;;1.65;;
42846;SDS011;28495;49.916;14.536;2023-05-31T06:46:24;5.15;;;1.60;;
42846;SDS011;28495;49.916;14.536;2023-05-31T06:52:14;4.97;;;2.55;;
42846;SDS011;28495;49.916;14.536;2023-05-31T06:57:53;4.60;;;1.75;;
42846;SDS011;28495;49.916;14.536;2023-05-31T07:03:14;3.65;;;1.70;;
42846;SDS011;28495;49.916;14.536;2023-05-31T07:08:35;4.03;;;1.60;;
42846;SDS011;28495;49.916;14.536;2023-05-31T07:14:19;7.18;;;1.77;;
42846;SDS011;28495;49.916;14.536;2023-05-31T07:19:44;7.53;;;1.70;;
42846;SDS011;28495;49.916;14.536;2023-05-31T07:25:06;3.95;;;1.70;;
42846;SDS011;28495;49.916;14.536;2023-05-31T07:30:27;2.78;;;1.40;;
42846;SDS011;28495;49.916;14.536;2023-05-31T07:35:47;3.22;;;1.60;;
42846;SDS011;28495;49.916;14.536;2023-05-31T07:41:17;9.15;;;2.25;;
42846;SDS011;28495;49.916;14.536;2023-05-31T07:46:38;6.00;;;1.38;;
42846;SDS011;28495;49.916;14.536;2023-05-31T07:51:59;5.53;;;1.50;;
42846;SDS011;28495;49.916;14.536;2023-05-31T07:57:20;4.70;;;1.30;;
42846;SDS011;28495;49.916;14.536;2023-05-31T08:02:40;24.85;;;2.22;;
42846;SDS011;28495;49.916;14.536;2023-05-31T08:08:02;3.97;;;1.50;;
42846;SDS011;28495;49.916;14.536;2023-05-31T08:13:23;11.13;;;1.50;;
42846;SDS011;28495;49.916;14.536;2023-05-31T08:18:44;7.95;;;1.73;;
42846;SDS011;28495;49.916;14.536;2023-05-31T08:24:05;4.15;;;1.50;;
42846;SDS011;28495;49.916;14.536;2023-05-31T08:29:27;3.70;;;1.70;;
42846;SDS011;28495;49.916;14.536;2023-05-31T08:34:48;4.25;;;1.40;;
42846;SDS011;28495;49.916;14.536;2023-05-31T08:40:09;3.58;;;1.35;;
42846;SDS011;28495;49.916;14.536;2023-05-31T08:45:31;4.90;;;1.50;;
42846;SDS011;28495;49.916;14.536;2023-05-31T08:50:56;3.10;;;1.35;;
42846;SDS011;28495;49.916;14.536;2023-05-31T08:56:19;3.85;;;1.15;;
42846;SDS011;28495;49.916;14.536;2023-05-31T09:01:43;5.28;;;1.02;;
42846;SDS011;28495;49.916;14.536;2023-05-31T09:07:06;3.15;;;1.42;;
42846;SDS011;28495;49.916;14.536;2023-05-31T09:12:27;5.22;;;1.75;;
42846;SDS011;28495;49.916;14.536;2023-05-31T09:17:48;2.28;;;1.10;;
42846;SDS011;28495;49.916;14.536;2023-05-31T09:23:09;6.70;;;1.73;;
42846;SDS011;28495;49.916;14.536;2023-05-31T09:28:30;4.57;;;0.90;;
42846;SDS011;28495;49.916;14.536;2023-05-31T09:33:51;3.80;;;1.13;;
42846;SDS011;28495;49.916;14.536;2023-05-31T09:39:15;2.63;;;1.33;;
42846;SDS011;28495;49.916;14.536;2023-05-31T09:44:36;4.72;;;1.10;;
42846;SDS011;28495;49.916;14.536;2023-05-31T09:49:57;3.58;;;1.48;;
42846;SDS011;28495;49.916;14.536;2023-05-31T09:55:21;3.83;;;1.50;;
42846;SDS011;28495;49.916;14.536;2023-05-31T10:00:46;4.20;;;1.35;;
42846;SDS011;28495;49.916;14.536;2023-05-31T10:06:08;2.55;;;1.20;;
42846;SDS011;28495;49.916;14.536;2023-05-31T10:11:33;2.75;;;1.25;;
42846;SDS011;28495;49.916;14.536;2023-05-31T10:16:55;5.15;;;1.50;;
42846;SDS011;28495;49.916;14.536;2023-05-31T10:22:19;3.78;;;1.40;;
42846;SDS011;28495;49.916;14.536;2023-05-31T10:27:42;3.97;;;0.98;;
42846;SDS011;28495;49.916;14.536;2023-05-31T10:33:10;4.18;;;1.33;;
42846;SDS011;28495;49.916;14.536;2023-05-31T10:38:38;3.42;;;1.67;;
42846;SDS011;28495;49.916;14.536;2023-05-31T10:44:09;2.67;;;1.20;;
42846;SDS011;28495;49.916;14.536;2023-05-31T10:49:37;1.95;;;1.20;;
42846;SDS011;28495;49.916;14.536;2023-05-31T10:55:14;3.80;;;1.02;;
42846;SDS011;28495;49.916;14.536;2023-05-31T11:00:44;2.67;;;0.80;;
42846;SDS011;28495;49.916;14.536;2023-05-31T11:06:08;3.55;;;1.30;;
42846;SDS011;28495;49.916;14.536;2023-05-31T11:22:15;8.13;;;1.50;;
42846;SDS011;28495;49.916;14.536;2023-05-31T11:27:37;4.60;;;1.17;;
42846;SDS011;28495;49.916;14.536;2023-05-31T11:32:59;2.80;;;0.95;;
42846;SDS011;28495;49.916;14.536;2023-05-31T11:38:20;2.20;;;1.30;;
42846;SDS011;28495;49.916;14.536;2023-05-31T11:43:41;3.50;;;1.30;;
42846;SDS011;28495;49.916;14.536;2023-05-31T11:49:04;1.27;;;1.00;;
42846;SDS011;28495;49.916;14.536;2023-05-31T11:54:28;6.13;;;1.38;;
42846;SDS011;28495;49.916;14.536;2023-05-31T11:59:50;1.13;;;0.90;;
42846;SDS011;28495;49.916;14.536;2023-05-31T12:05:11;3.38;;;0.80;;
42846;SDS011;28495;49.916;14.536;2023-05-31T12:10:33;3.65;;;1.20;;
42846;SDS011;28495;49.916;14.536;2023-05-31T12:15:54;3.28;;;1.25;;
42846;SDS011;28495;49.916;14.536;2023-05-31T12:21:16;3.33;;;1.20;;
42846;SDS011;28495;49.916;14.536;2023-05-31T12:26:37;5.78;;;1.40;;
42846;SDS011;28495;49.916;14.536;2023-05-31T12:32:05;3.90;;;1.20;;
42846;SDS011;28495;49.916;14.536;2023-05-31T12:37:27;1.90;;;1.00;;
42846;SDS011;28495;49.916;14.536;2023-05-31T12:42:48;1.92;;;1.13;;
42846;SDS011;28495;49.916;14.536;2023-05-31T12:48:09;3.30;;;1.08;;
42846;SDS011;28495;49.916;14.536;2023-05-31T12:53:31;1.13;;;0.75;;
42846;SDS011;28495;49.916;14.536;2023-05-31T12:58:51;3.53;;;0.93;;
42846;SDS011;28495;49.916;14.536;2023-05-31T13:04:13;1.77;;;0.80;;
42846;SDS011;28495;49.916;14.536;2023-05-31T13:09:33;3.45;;;1.10;;
42846;SDS011;28495;49.916;14.536;2023-05-31T13:14:55;3.10;;;1.15;;
42846;SDS011;28495;49.916;14.536;2023-05-31T13:20:17;1.65;;;0.95;;
42846;SDS011;28495;49.916;14.536;2023-05-31T13:25:37;2.53;;;0.80;;
42846;SDS011;28495;49.916;14.536;2023-05-31T13:31:01;2.10;;;0.82;;
42846;SDS011;28495;49.916;14.536;2023-05-31T13:36:22;1.25;;;0.80;;
42846;SDS011;28495;49.916;14.536;2023-05-31T13:41:46;1.60;;;0.60;;
42846;SDS011;28495;49.916;14.536;2023-05-31T13:47:07;1.23;;;0.50;;
42846;SDS011;28495;49.916;14.536;2023-05-31T13:52:29;6.78;;;0.95;;
42846;SDS011;28495;49.916;14.536;2023-05-31T13:57:50;1.38;;;0.63;;
42846;SDS011;28495;49.916;14.536;2023-05-31T14:03:10;1.05;;;0.70;;
42846;SDS011;28495;49.916;14.536;2023-05-31T14:08:32;1.25;;;0.80;;
42846;SDS011;28495;49.916;14.536;2023-05-31T14:13:52;2.22;;;0.70;;
42846;SDS011;28495;49.916;14.536;2023-05-31T14:19:13;0.68;;;0.50;;
42846;SDS011;28495;49.916;14.536;2023-05-31T14:24:34;3.25;;;0.80;;
42846;SDS011;28495;49.916;14.536;2023-05-31T14:29:55;2.38;;;0.65;;
42846;SDS011;28495;49.916;14.536;2023-05-31T14:35:16;1.02;;;0.82;;
42846;SDS011;28495;49.916;14.536;2023-05-31T14:40:38;2.10;;;0.95;;
42846;SDS011;28495;49.916;14.536;2023-05-31T14:45:59;1.50;;;0.73;;
42846;SDS011;28495;49.916;14.536;2023-05-31T14:51:19;1.30;;;0.70;;
42846;SDS011;28495;49.916;14.536;2023-05-31T14:56:40;1.95;;;0.70;;
42846;SDS011;28495;49.916;14.536;2023-05-31T15:02:01;4.53;;;1.00;;
42846;SDS011;28495;49.916;14.536;2023-05-31T15:07:22;1.13;;;0.70;;
42846;SDS011;28495;49.916;14.536;2023-05-31T15:12:43;1.75;;;0.52;;
42846;SDS011;28495;49.916;14.536;2023-05-31T15:18:04;1.88;;;0.85;;
42846;SDS011;28495;49.916;14.536;2023-05-31T15:23:26;1.08;;;0.80;;
42846;SDS011;28495;49.916;14.536;2023-05-31T15:28:47;2.05;;;0.85;;
42846;SDS011;28495;49.916;14.536;2023-05-31T15:34:09;0.93;;;0.57;;
42846;SDS011;28495;49.916;14.536;2023-05-31T15:39:30;1.60;;;0.50;;
42846;SDS011;28495;49.916;14.536;2023-05-31T15:44:51;1.73;;;0.63;;
42846;SDS011;28495;49.916;14.536;2023-05-31T15:50:12;1.60;;;0.40;;
42846;SDS011;28495;49.916;14.536;2023-05-31T15:55:32;2.60;;;0.52;;
42846;SDS011;28495;49.916;14.536;2023-05-31T16:00:53;1.65;;;0.70;;
42846;SDS011;28495;49.916;14.536;2023-05-31T16:06:16;1.60;;;0.77;;
42846;SDS011;28495;49.916;14.536;2023-05-31T16:11:38;1.40;;;0.80;;
42846;SDS011;28495;49.916;14.536;2023-05-31T16:17:03;1.58;;;0.80;;
42846;SDS011;28495;49.916;14.536;2023-05-31T16:22:24;4.40;;;0.90;;
42846;SDS011;28495;49.916;14.536;2023-05-31T16:27:45;2.08;;;0.47;;
42846;SDS011;28495;49.916;14.536;2023-05-31T16:33:06;2.55;;;0.80;;
42846;SDS011;28495;49.916;14.536;2023-05-31T16:38:29;3.63;;;0.70;;
42846;SDS011;28495;49.916;14.536;2023-05-31T16:43:50;3.97;;;0.88;;
42846;SDS011;28495;49.916;14.536;2023-05-31T16:49:11;2.92;;;0.80;;
42846;SDS011;28495;49.916;14.536;2023-05-31T16:54:32;4.03;;;1.00;;
42846;SDS011;28495;49.916;14.536;2023-05-31T16:59:52;2.78;;;0.80;;
42846;SDS011;28495;49.916;14.536;2023-05-31T17:05:14;4.32;;;0.68;;
42846;SDS011;28495;49.916;14.536;2023-05-31T17:10:36;5.45;;;1.10;;
42846;SDS011;28495;49.916;14.536;2023-05-31T17:15:57;1.67;;;0.85;;
42846;SDS011;28495;49.916;14.536;2023-05-31T17:21:19;4.25;;;1.25;;
42846;SDS011;28495;49.916;14.536;2023-05-31T17:26:40;5.75;;;1.23;;
42846;SDS011;28495;49.916;14.536;2023-05-31T17:32:06;1.35;;;1.00;;
42846;SDS011;28495;49.916;14.536;2023-05-31T17:37:28;0.90;;;0.85;;
42846;SDS011;28495;49.916;14.536;2023-05-31T17:42:51;3.33;;;1.05;;
42846;SDS011;28495;49.916;14.536;2023-05-31T17:48:12;1.15;;;0.90;;
42846;SDS011;28495;49.916;14.536;2023-05-31T17:53:33;4.40;;;1.13;;
42846;SDS011;28495;49.916;14.536;2023-05-31T17:58:54;3.72;;;1.75;;
42846;SDS011;28495;49.916;14.536;2023-05-31T18:04:14;2.75;;;0.98;;
42846;SDS011;28495;49.916;14.536;2023-05-31T18:09:36;2.42;;;0.80;;
42846;SDS011;28495;49.916;14.536;2023-05-31T18:14:57;4.55;;;1.10;;
42846;SDS011;28495;49.916;14.536;2023-05-31T18:20:18;3.35;;;1.10;;
42846;SDS011;28495;49.916;14.536;2023-05-31T18:25:39;1.40;;;0.90;;
42846;SDS011;28495;49.916;14.536;2023-05-31T18:31:00;3.65;;;0.85;;
42846;SDS011;28495;49.916;14.536;2023-05-31T18:36:21;8.48;;;1.08;;
42846;SDS011;28495;49.916;14.536;2023-05-31T18:41:43;1.42;;;0.60;;
42846;SDS011;28495;49.916;14.536;2023-05-31T18:47:04;3.72;;;0.82;;
42846;SDS011;28495;49.916;14.536;2023-05-31T18:52:27;1.95;;;1.00;;
42846;SDS011;28495;49.916;14.536;2023-05-31T18:57:48;4.72;;;1.30;;
42846;SDS011;28495;49.916;14.536;2023-05-31T19:03:08;4.53;;;1.25;;
42846;SDS011;28495;49.916;14.536;2023-05-31T19:08:30;3.10;;;1.70;;
42846;SDS011;28495;49.916;14.536;2023-05-31T19:13:51;5.25;;;1.20;;
42846;SDS011;28495;49.916;14.536;2023-05-31T19:19:12;12.15;;;1.85;;
42846;SDS011;28495;49.916;14.536;2023-05-31T19:24:34;4.18;;;1.33;;
42846;SDS011;28495;49.916;14.536;2023-05-31T19:29:54;4.75;;;1.55;;
42846;SDS011;28495;49.916;14.536;2023-05-31T19:35:15;5.05;;;1.45;;
42846;SDS011;28495;49.916;14.536;2023-05-31T19:40:36;5.07;;;1.30;;
42846;SDS011;28495;49.916;14.536;2023-05-31T19:45:57;1.80;;;1.20;;
42846;SDS011;28495;49.916;14.536;2023-05-31T19:51:20;2.30;;;1.30;;
42846;SDS011;28495;49.916;14.536;2023-05-31T19:56:42;5.57;;;1.45;;
42846;SDS011;28495;49.916;14.536;2023-05-31T20:02:03;2.53;;;1.10;;
42846;SDS011;28495;49.916;14.536;2023-05-31T20:07:24;1.70;;;1.30;;
42846;SDS011;28495;49.916;14.536;2023-05-31T20:12:45;1.48;;;1.10;;
42846;SDS011;28495;49.916;14.536;2023-05-31T20:18:06;6.15;;;1.55;;
42846;SDS011;28495;49.916;14.536;2023-05-31T20:23:27;3.13;;;1.80;;
42846;SDS011;28495;49.916;14.536;2023-05-31T20:28:48;2.53;;;1.40;;
42846;SDS011;28495;49.916;14.536;2023-05-31T20:34:09;3.13;;;1.38;;
42846;SDS011;28495;49.916;14.536;2023-05-31T20:39:30;1.75;;;1.35;;
42846;SDS011;28495;49.916;14.536;2023-05-31T20:44:51;2.10;;;1.63;;
42846;SDS011;28495;49.916;14.536;2023-05-31T20:50:12;2.33;;;1.10;;
42846;SDS011;28495;49.916;14.536;2023-05-31T20:55:34;2.53;;;1.30;;
42846;SDS011;28495;49.916;14.536;2023-05-31T21:00:58;3.63;;;1.45;;
42846;SDS011;28495;49.916;14.536;2023-05-31T21:06:19;1.95;;;1.27;;
42846;SDS011;28495;49.916;14.536;2023-05-31T21:11:40;2.60;;;1.20;;
42846;SDS011;28495;49.916;14.536;2023-05-31T21:17:01;3.30;;;1.10;;
42846;SDS011;28495;49.916;14.536;2023-05-31T21:22:22;1.33;;;1.08;;
42846;SDS011;28495;49.916;14.536;2023-05-31T21:27:43;1.60;;;1.00;;
42846;SDS011;28495;49.916;14.536;2023-05-31T21:33:04;2.70;;;1.33;;
42846;SDS011;28495;49.916;14.536;2023-05-31T21:38:25;2.70;;;1.15;;
42846;SDS011;28495;49.916;14.536;2023-05-31T21:43:46;1.70;;;1.30;;
42846;SDS011;28495;49.916;14.536;2023-05-31T21:49:07;2.40;;;1.23;;
42846;SDS011;28495;49.916;14.536;2023-05-31T21:54:28;4.10;;;1.30;;
42846;SDS011;28495;49.916;14.536;2023-05-31T21:59:48;3.00;;;1.10;;
42846;SDS011;28495;49.916;14.536;2023-05-31T22:05:09;2.45;;;0.90;;
42846;SDS011;28495;49.916;14.536;2023-05-31T22:10:30;2.50;;;1.00;;
42846;SDS011;28495;49.916;14.536;2023-05-31T22:15:51;2.35;;;1.40;;
42846;SDS011;28495;49.916;14.536;2023-05-31T22:21:12;1.95;;;0.90;;
42846;SDS011;28495;49.916;14.536;2023-05-31T22:26:35;2.88;;;1.10;;
42846;SDS011;28495;49.916;14.536;2023-05-31T22:31:56;1.05;;;0.80;;
42846;SDS011;28495;49.916;14.536;2023-05-31T22:37:17;3.13;;;1.40;;
42846;SDS011;28495;49.916;14.536;2023-05-31T22:42:37;2.78;;;1.00;;
42846;SDS011;28495;49.916;14.536;2023-05-31T22:47:58;1.85;;;1.30;;
42846;SDS011;28495;49.916;14.536;2023-05-31T22:53:19;2.22;;;1.20;;
42846;SDS011;28495;49.916;14.536;2023-05-31T22:58:40;2.35;;;0.85;;
42846;SDS011;28495;49.916;14.536;2023-05-31T23:04:01;1.15;;;1.05;;
42846;SDS011;28495;49.916;14.536;2023-05-31T23:09:26;1.08;;;0.80;;
42846;SDS011;28495;49.916;14.536;2023-05-31T23:14:48;1.85;;;1.10;;
42846;SDS011;28495;49.916;14.536;2023-05-31T23:20:10;2.28;;;1.00;;
42846;SDS011;28495;49.916;14.536;2023-05-31T23:25:33;2.60;;;1.25;;
42846;SDS011;28495;49.916;14.536;2023-05-31T23:30:54;3.20;;;1.20;;
42846;SDS011;28495;49.916;14.536;2023-05-31T23:36:15;1.30;;;0.90;;
42846;SDS011;28495;49.916;14.536;2023-05-31T23:41:36;1.73;;;1.10;;
42846;SDS011;28495;49.916;14.536;2023-05-31T23:46:56;2.33;;;1.17;;
42846;SDS011;28495;49.916;14.536;2023-05-31T23:52:17;1.40;;;1.10;;
42846;SDS011;28495;49.916;14.536;2023-05-31T23:57:39;1.35;;;1.20;;
